sensor_id;sensor_type;location;lat;lon;timestamp;P1;durP1;ratioP1;P2;durP2;ratioP2
20154;SDS011;10238;49.556;10.956;2023-08-31T00:01:45;4.93;;;2.90;;
20154;SDS011;10238;49.556;10.956;2023-08-31T00:04:33;2.88;;;2.60;;
20154;SDS011;10238;49.556;10.956;2023-08-31T00:07:21;4.15;;;2.65;;
20154;SDS011;10238;49.556;10.956;2023-08-31T00:10:09;5.35;;;2.42;;
20154;SDS011;10238;49.556;10.956;2023-08-31T00:12:57;2.58;;;2.38;;
20154;SDS011;10238;49.556;10.956;2023-08-31T00:15:47;4.70;;;2.95;;
20154;SDS011;10238;49.556;10.956;2023-08-31T00:18:35;2.80;;;2.60;;
20154;SDS011;10238;49.556;10.956;2023-08-31T00:21:22;3.53;;;2.85;;
20154;SDS011;10238;49.556;10.956;2023-08-31T00:24:10;2.92;;;2.63;;
20154;SDS011;10238;49.556;10.956;2023-08-31T00:26:57;3.53;;;2.38;;
20154;SDS011;10238;49.556;10.956;2023-08-31T00:29:45;2.78;;;2.58;;
20154;SDS011;10238;49.556;10.956;2023-08-31T00:32:37;4.15;;;2.58;;
20154;SDS011;10238;49.556;10.956;2023-08-31T00:35:28;2.83;;;2.30;;
20154;SDS011;10238;49.556;10.956;2023-08-31T00:38:16;2.58;;;2.38;;
20154;SDS011;10238;49.556;10.956;2023-08-31T00:41:03;3.80;;;2.85;;
20154;SDS011;10238;49.556;10.956;2023-08-31T00:43:51;4.13;;;2.70;;
20154;SDS011;10238;49.556;10.956;2023-08-31T00:46:40;2.67;;;2.47;;
20154;SDS011;10238;49.556;10.956;2023-08-31T00:49:30;2.85;;;2.65;;
20154;SDS011;10238;49.556;10.956;2023-08-31T00:52:18;3.00;;;2.70;;
20154;SDS011;10238;49.556;10.956;2023-08-31T00:55:07;3.60;;;3.08;;
20154;SDS011;10238;49.556;10.956;2023-08-31T00:57:56;2.83;;;2.58;;
20154;SDS011;10238;49.556;10.956;2023-08-31T01:00:46;6.10;;;2.88;;
20154;SDS011;10238;49.556;10.956;2023-08-31T01:03:49;2.60;;;2.40;;
20154;SDS011;10238;49.556;10.956;2023-08-31T01:06:49;4.05;;;3.00;;
20154;SDS011;10238;49.556;10.956;2023-08-31T01:09:50;4.00;;;3.10;;
20154;SDS011;10238;49.556;10.956;2023-08-31T01:12:52;5.05;;;2.80;;
20154;SDS011;10238;49.556;10.956;2023-08-31T01:15:50;5.60;;;2.95;;
20154;SDS011;10238;49.556;10.956;2023-08-31T01:18:43;4.05;;;2.72;;
20154;SDS011;10238;49.556;10.956;2023-08-31T01:21:34;3.83;;;3.53;;
20154;SDS011;10238;49.556;10.956;2023-08-31T01:24:30;3.22;;;2.80;;
20154;SDS011;10238;49.556;10.956;2023-08-31T01:27:18;3.85;;;2.70;;
20154;SDS011;10238;49.556;10.956;2023-08-31T01:30:07;3.20;;;2.53;;
20154;SDS011;10238;49.556;10.956;2023-08-31T01:32:55;3.72;;;3.42;;
20154;SDS011;10238;49.556;10.956;2023-08-31T01:35:42;3.53;;;2.47;;
20154;SDS011;10238;49.556;10.956;2023-08-31T01:38:38;4.70;;;2.85;;
20154;SDS011;10238;49.556;10.956;2023-08-31T01:41:33;3.17;;;2.67;;
20154;SDS011;10238;49.556;10.956;2023-08-31T01:44:23;2.78;;;2.50;;
20154;SDS011;10238;49.556;10.956;2023-08-31T01:47:12;2.80;;;2.38;;
20154;SDS011;10238;49.556;10.956;2023-08-31T01:50:03;3.22;;;2.40;;
20154;SDS011;10238;49.556;10.956;2023-08-31T01:52:51;3.60;;;3.03;;
20154;SDS011;10238;49.556;10.956;2023-08-31T01:55:39;2.92;;;2.50;;
20154;SDS011;10238;49.556;10.956;2023-08-31T01:58:28;2.42;;;2.22;;
20154;SDS011;10238;49.556;10.956;2023-08-31T02:01:16;3.80;;;2.17;;
20154;SDS011;10238;49.556;10.956;2023-08-31T02:04:04;3.20;;;2.70;;
20154;SDS011;10238;49.556;10.956;2023-08-31T02:06:52;3.25;;;2.50;;
20154;SDS011;10238;49.556;10.956;2023-08-31T02:09:39;2.78;;;2.50;;
20154;SDS011;10238;49.556;10.956;2023-08-31T02:12:27;3.00;;;2.63;;
20154;SDS011;10238;49.556;10.956;2023-08-31T02:15:16;2.38;;;2.17;;
20154;SDS011;10238;49.556;10.956;2023-08-31T02:18:04;2.17;;;2.00;;
20154;SDS011;10238;49.556;10.956;2023-08-31T02:20:52;2.63;;;2.20;;
20154;SDS011;10238;49.556;10.956;2023-08-31T02:23:40;3.17;;;2.10;;
20154;SDS011;10238;49.556;10.956;2023-08-31T02:26:27;4.05;;;2.20;;
20154;SDS011;10238;49.556;10.956;2023-08-31T02:29:15;2.63;;;2.20;;
20154;SDS011;10238;49.556;10.956;2023-08-31T02:32:05;3.33;;;2.15;;
20154;SDS011;10238;49.556;10.956;2023-08-31T02:34:54;3.08;;;2.22;;
20154;SDS011;10238;49.556;10.956;2023-08-31T02:37:41;2.00;;;1.80;;
20154;SDS011;10238;49.556;10.956;2023-08-31T02:40:29;3.55;;;2.30;;
20154;SDS011;10238;49.556;10.956;2023-08-31T02:43:16;1.92;;;1.83;;
20154;SDS011;10238;49.556;10.956;2023-08-31T02:46:05;1.88;;;1.77;;
20154;SDS011;10238;49.556;10.956;2023-08-31T02:48:53;2.15;;;1.83;;
20154;SDS011;10238;49.556;10.956;2023-08-31T02:51:42;4.65;;;2.10;;
20154;SDS011;10238;49.556;10.956;2023-08-31T02:54:29;5.00;;;2.17;;
20154;SDS011;10238;49.556;10.956;2023-08-31T02:57:17;2.75;;;2.00;;
20154;SDS011;10238;49.556;10.956;2023-08-31T03:00:09;2.75;;;1.75;;
20154;SDS011;10238;49.556;10.956;2023-08-31T03:03:03;2.13;;;1.92;;
20154;SDS011;10238;49.556;10.956;2023-08-31T03:05:54;4.20;;;2.08;;
20154;SDS011;10238;49.556;10.956;2023-08-31T03:08:43;2.70;;;2.42;;
20154;SDS011;10238;49.556;10.956;2023-08-31T03:11:30;2.78;;;2.00;;
20154;SDS011;10238;49.556;10.956;2023-08-31T03:14:18;2.53;;;2.15;;
20154;SDS011;10238;49.556;10.956;2023-08-31T03:17:05;3.13;;;2.35;;
20154;SDS011;10238;49.556;10.956;2023-08-31T03:19:53;5.03;;;2.30;;
20154;SDS011;10238;49.556;10.956;2023-08-31T03:22:42;3.15;;;2.20;;
20154;SDS011;10238;49.556;10.956;2023-08-31T03:25:30;4.45;;;2.70;;
20154;SDS011;10238;49.556;10.956;2023-08-31T03:28:17;4.40;;;2.38;;
20154;SDS011;10238;49.556;10.956;2023-08-31T03:31:05;2.67;;;2.47;;
20154;SDS011;10238;49.556;10.956;2023-08-31T03:33:53;3.10;;;2.33;;
20154;SDS011;10238;49.556;10.956;2023-08-31T03:36:41;4.72;;;2.20;;
20154;SDS011;10238;49.556;10.956;2023-08-31T03:39:30;4.30;;;2.30;;
20154;SDS011;10238;49.556;10.956;2023-08-31T03:42:17;3.33;;;2.50;;
20154;SDS011;10238;49.556;10.956;2023-08-31T03:45:05;5.57;;;2.38;;
20154;SDS011;10238;49.556;10.956;2023-08-31T03:47:53;3.90;;;2.55;;
20154;SDS011;10238;49.556;10.956;2023-08-31T03:50:41;3.22;;;2.20;;
20154;SDS011;10238;49.556;10.956;2023-08-31T03:53:29;2.50;;;2.30;;
20154;SDS011;10238;49.556;10.956;2023-08-31T03:56:18;3.50;;;2.58;;
20154;SDS011;10238;49.556;10.956;2023-08-31T03:59:05;3.15;;;2.40;;
20154;SDS011;10238;49.556;10.956;2023-08-31T04:01:53;4.97;;;2.60;;
20154;SDS011;10238;49.556;10.956;2023-08-31T04:04:41;2.58;;;2.38;;
20154;SDS011;10238;49.556;10.956;2023-08-31T04:07:29;3.50;;;2.33;;
20154;SDS011;10238;49.556;10.956;2023-08-31T04:10:17;3.63;;;2.60;;
20154;SDS011;10238;49.556;10.956;2023-08-31T04:13:06;2.97;;;2.47;;
20154;SDS011;10238;49.556;10.956;2023-08-31T04:15:55;2.78;;;2.50;;
20154;SDS011;10238;49.556;10.956;2023-08-31T04:18:42;4.18;;;2.45;;
20154;SDS011;10238;49.556;10.956;2023-08-31T04:21:33;4.05;;;2.40;;
20154;SDS011;10238;49.556;10.956;2023-08-31T04:24:21;2.80;;;2.42;;
20154;SDS011;10238;49.556;10.956;2023-08-31T04:27:09;3.25;;;2.60;;
20154;SDS011;10238;49.556;10.956;2023-08-31T04:29:58;3.72;;;2.40;;
20154;SDS011;10238;49.556;10.956;2023-08-31T04:32:47;3.70;;;3.20;;
20154;SDS011;10238;49.556;10.956;2023-08-31T04:35:34;6.13;;;2.72;;
20154;SDS011;10238;49.556;10.956;2023-08-31T04:38:22;3.50;;;2.50;;
20154;SDS011;10238;49.556;10.956;2023-08-31T04:41:09;4.65;;;2.63;;
20154;SDS011;10238;49.556;10.956;2023-08-31T04:43:57;5.05;;;3.15;;
20154;SDS011;10238;49.556;10.956;2023-08-31T04:46:45;3.40;;;2.75;;
20154;SDS011;10238;49.556;10.956;2023-08-31T04:49:33;3.47;;;3.00;;
20154;SDS011;10238;49.556;10.956;2023-08-31T04:52:20;3.25;;;2.65;;
20154;SDS011;10238;49.556;10.956;2023-08-31T04:55:08;3.10;;;2.80;;
20154;SDS011;10238;49.556;10.956;2023-08-31T04:57:58;3.03;;;2.45;;
20154;SDS011;10238;49.556;10.956;2023-08-31T05:00:46;3.88;;;2.88;;
20154;SDS011;10238;49.556;10.956;2023-08-31T05:03:35;4.18;;;2.78;;
20154;SDS011;10238;49.556;10.956;2023-08-31T05:06:23;4.28;;;2.75;;
20154;SDS011;10238;49.556;10.956;2023-08-31T05:09:11;3.53;;;2.70;;
20154;SDS011;10238;49.556;10.956;2023-08-31T05:11:59;3.53;;;3.05;;
20154;SDS011;10238;49.556;10.956;2023-08-31T05:14:46;4.68;;;2.67;;
20154;SDS011;10238;49.556;10.956;2023-08-31T05:17:34;2.85;;;2.65;;
20154;SDS011;10238;49.556;10.956;2023-08-31T05:20:22;5.75;;;3.40;;
20154;SDS011;10238;49.556;10.956;2023-08-31T05:23:10;4.47;;;3.58;;
20154;SDS011;10238;49.556;10.956;2023-08-31T05:25:58;4.35;;;3.10;;
20154;SDS011;10238;49.556;10.956;2023-08-31T05:28:47;4.65;;;3.25;;
20154;SDS011;10238;49.556;10.956;2023-08-31T05:31:34;4.68;;;3.40;;
20154;SDS011;10238;49.556;10.956;2023-08-31T05:34:24;3.53;;;3.22;;
20154;SDS011;10238;49.556;10.956;2023-08-31T05:37:13;3.97;;;3.05;;
20154;SDS011;10238;49.556;10.956;2023-08-31T05:40:01;6.25;;;3.58;;
20154;SDS011;10238;49.556;10.956;2023-08-31T05:42:55;4.57;;;3.90;;
20154;SDS011;10238;49.556;10.956;2023-08-31T05:45:43;3.53;;;3.20;;
20154;SDS011;10238;49.556;10.956;2023-08-31T05:48:32;5.38;;;4.50;;
20154;SDS011;10238;49.556;10.956;2023-08-31T05:51:19;5.97;;;4.20;;
20154;SDS011;10238;49.556;10.956;2023-08-31T05:54:08;8.40;;;4.68;;
20154;SDS011;10238;49.556;10.956;2023-08-31T05:56:58;7.35;;;5.00;;
20154;SDS011;10238;49.556;10.956;2023-08-31T05:59:49;11.80;;;5.53;;
20154;SDS011;10238;49.556;10.956;2023-08-31T06:02:36;5.28;;;4.78;;
20154;SDS011;10238;49.556;10.956;2023-08-31T06:05:24;5.75;;;4.80;;
20154;SDS011;10238;49.556;10.956;2023-08-31T06:08:13;5.93;;;4.45;;
20154;SDS011;10238;49.556;10.956;2023-08-31T06:11:02;6.93;;;4.97;;
20154;SDS011;10238;49.556;10.956;2023-08-31T06:13:50;6.22;;;4.65;;
20154;SDS011;10238;49.556;10.956;2023-08-31T06:16:37;6.15;;;4.97;;
20154;SDS011;10238;49.556;10.956;2023-08-31T06:19:25;8.88;;;5.93;;
20154;SDS011;10238;49.556;10.956;2023-08-31T06:22:12;8.30;;;5.32;;
20154;SDS011;10238;49.556;10.956;2023-08-31T06:25:00;8.45;;;6.47;;
20154;SDS011;10238;49.556;10.956;2023-08-31T06:27:49;6.28;;;5.55;;
20154;SDS011;10238;49.556;10.956;2023-08-31T06:30:37;5.80;;;5.20;;
20154;SDS011;10238;49.556;10.956;2023-08-31T06:33:26;5.78;;;4.93;;
20154;SDS011;10238;49.556;10.956;2023-08-31T06:36:13;7.18;;;6.03;;
20154;SDS011;10238;49.556;10.956;2023-08-31T06:39:01;7.72;;;5.47;;
20154;SDS011;10238;49.556;10.956;2023-08-31T06:41:50;6.40;;;4.72;;
20154;SDS011;10238;49.556;10.956;2023-08-31T06:44:39;7.80;;;5.45;;
20154;SDS011;10238;49.556;10.956;2023-08-31T06:47:27;7.32;;;5.75;;
20154;SDS011;10238;49.556;10.956;2023-08-31T06:50:14;7.07;;;5.35;;
20154;SDS011;10238;49.556;10.956;2023-08-31T06:53:02;7.85;;;4.90;;
20154;SDS011;10238;49.556;10.956;2023-08-31T06:55:50;9.30;;;5.28;;
20154;SDS011;10238;49.556;10.956;2023-08-31T06:58:38;9.65;;;6.50;;
20154;SDS011;10238;49.556;10.956;2023-08-31T07:01:27;10.85;;;6.47;;
20154;SDS011;10238;49.556;10.956;2023-08-31T07:04:15;10.02;;;6.53;;
20154;SDS011;10238;49.556;10.956;2023-08-31T07:07:03;8.15;;;5.75;;
20154;SDS011;10238;49.556;10.956;2023-08-31T07:09:54;7.85;;;6.55;;
20154;SDS011;10238;49.556;10.956;2023-08-31T07:12:41;11.73;;;5.28;;
20154;SDS011;10238;49.556;10.956;2023-08-31T07:15:29;11.75;;;5.82;;
20154;SDS011;10238;49.556;10.956;2023-08-31T07:18:19;9.75;;;6.20;;
20154;SDS011;10238;49.556;10.956;2023-08-31T07:21:06;5.90;;;4.97;;
20154;SDS011;10238;49.556;10.956;2023-08-31T07:23:57;7.07;;;4.85;;
20154;SDS011;10238;49.556;10.956;2023-08-31T07:26:44;8.20;;;5.72;;
20154;SDS011;10238;49.556;10.956;2023-08-31T07:29:32;7.22;;;5.00;;
20154;SDS011;10238;49.556;10.956;2023-08-31T07:32:19;6.95;;;4.82;;
20154;SDS011;10238;49.556;10.956;2023-08-31T07:35:09;8.07;;;4.55;;
20154;SDS011;10238;49.556;10.956;2023-08-31T07:37:56;6.13;;;4.57;;
20154;SDS011;10238;49.556;10.956;2023-08-31T07:40:44;5.18;;;4.30;;
20154;SDS011;10238;49.556;10.956;2023-08-31T07:43:32;5.70;;;4.05;;
20154;SDS011;10238;49.556;10.956;2023-08-31T07:46:20;7.40;;;4.32;;
20154;SDS011;10238;49.556;10.956;2023-08-31T07:49:07;6.88;;;3.63;;
20154;SDS011;10238;49.556;10.956;2023-08-31T07:51:57;7.45;;;3.92;;
20154;SDS011;10238;49.556;10.956;2023-08-31T07:54:45;6.65;;;3.70;;
20154;SDS011;10238;49.556;10.956;2023-08-31T07:57:32;4.07;;;3.30;;
20154;SDS011;10238;49.556;10.956;2023-08-31T08:00:21;6.32;;;3.22;;
20154;SDS011;10238;49.556;10.956;2023-08-31T08:03:08;3.80;;;3.03;;
20154;SDS011;10238;49.556;10.956;2023-08-31T08:05:57;7.53;;;3.05;;
20154;SDS011;10238;49.556;10.956;2023-08-31T08:08:48;4.88;;;2.80;;
20154;SDS011;10238;49.556;10.956;2023-08-31T08:11:36;5.30;;;2.40;;
20154;SDS011;10238;49.556;10.956;2023-08-31T08:14:23;2.88;;;2.47;;
20154;SDS011;10238;49.556;10.956;2023-08-31T08:17:11;5.18;;;2.88;;
20154;SDS011;10238;49.556;10.956;2023-08-31T08:19:59;5.90;;;2.70;;
20154;SDS011;10238;49.556;10.956;2023-08-31T08:22:46;4.75;;;2.70;;
20154;SDS011;10238;49.556;10.956;2023-08-31T08:25:39;3.45;;;2.75;;
20154;SDS011;10238;49.556;10.956;2023-08-31T08:28:27;5.72;;;2.83;;
20154;SDS011;10238;49.556;10.956;2023-08-31T08:31:15;4.40;;;2.05;;
20154;SDS011;10238;49.556;10.956;2023-08-31T08:34:02;4.57;;;2.30;;
20154;SDS011;10238;49.556;10.956;2023-08-31T08:36:51;4.63;;;2.28;;
20154;SDS011;10238;49.556;10.956;2023-08-31T08:39:39;7.65;;;2.70;;
20154;SDS011;10238;49.556;10.956;2023-08-31T08:42:29;5.45;;;2.45;;
20154;SDS011;10238;49.556;10.956;2023-08-31T08:45:18;4.32;;;2.75;;
20154;SDS011;10238;49.556;10.956;2023-08-31T08:48:12;3.60;;;2.50;;
20154;SDS011;10238;49.556;10.956;2023-08-31T08:51:02;3.50;;;2.50;;
20154;SDS011;10238;49.556;10.956;2023-08-31T08:53:51;4.40;;;2.38;;
20154;SDS011;10238;49.556;10.956;2023-08-31T08:56:39;4.90;;;2.10;;
20154;SDS011;10238;49.556;10.956;2023-08-31T08:59:28;4.90;;;2.35;;
20154;SDS011;10238;49.556;10.956;2023-08-31T09:02:17;3.05;;;1.90;;
20154;SDS011;10238;49.556;10.956;2023-08-31T09:05:05;2.88;;;2.08;;
20154;SDS011;10238;49.556;10.956;2023-08-31T09:08:00;2.47;;;2.03;;
20154;SDS011;10238;49.556;10.956;2023-08-31T09:10:48;3.45;;;2.00;;
20154;SDS011;10238;49.556;10.956;2023-08-31T09:13:36;2.70;;;1.90;;
20154;SDS011;10238;49.556;10.956;2023-08-31T09:16:25;2.25;;;1.70;;
20154;SDS011;10238;49.556;10.956;2023-08-31T09:19:18;6.05;;;2.00;;
20154;SDS011;10238;49.556;10.956;2023-08-31T09:22:10;4.13;;;2.20;;
20154;SDS011;10238;49.556;10.956;2023-08-31T09:24:58;4.50;;;1.95;;
20154;SDS011;10238;49.556;10.956;2023-08-31T09:27:45;4.18;;;2.22;;
20154;SDS011;10238;49.556;10.956;2023-08-31T09:30:34;2.60;;;2.00;;
20154;SDS011;10238;49.556;10.956;2023-08-31T09:33:24;2.60;;;1.70;;
20154;SDS011;10238;49.556;10.956;2023-08-31T09:36:12;3.40;;;2.20;;
20154;SDS011;10238;49.556;10.956;2023-08-31T09:39:02;3.28;;;2.30;;
20154;SDS011;10238;49.556;10.956;2023-08-31T09:41:52;4.82;;;2.05;;
20154;SDS011;10238;49.556;10.956;2023-08-31T09:44:42;8.27;;;2.15;;
20154;SDS011;10238;49.556;10.956;2023-08-31T09:47:32;2.13;;;1.92;;
20154;SDS011;10238;49.556;10.956;2023-08-31T09:50:21;3.40;;;2.20;;
20154;SDS011;10238;49.556;10.956;2023-08-31T09:53:10;4.40;;;2.17;;
20154;SDS011;10238;49.556;10.956;2023-08-31T09:55:59;3.17;;;1.90;;
20154;SDS011;10238;49.556;10.956;2023-08-31T09:58:48;5.18;;;2.08;;
20154;SDS011;10238;49.556;10.956;2023-08-31T10:01:36;4.45;;;1.77;;
20154;SDS011;10238;49.556;10.956;2023-08-31T10:04:25;2.65;;;1.90;;
20154;SDS011;10238;49.556;10.956;2023-08-31T10:07:14;3.85;;;1.98;;
20154;SDS011;10238;49.556;10.956;2023-08-31T10:10:03;2.10;;;1.90;;
20154;SDS011;10238;49.556;10.956;2023-08-31T10:12:52;3.25;;;2.30;;
20154;SDS011;10238;49.556;10.956;2023-08-31T10:15:41;2.63;;;2.05;;
20154;SDS011;10238;49.556;10.956;2023-08-31T10:18:31;4.53;;;2.47;;
20154;SDS011;10238;49.556;10.956;2023-08-31T10:21:21;4.82;;;2.47;;
20154;SDS011;10238;49.556;10.956;2023-08-31T10:24:11;3.10;;;2.30;;
20154;SDS011;10238;49.556;10.956;2023-08-31T10:27:14;4.45;;;2.60;;
20154;SDS011;10238;49.556;10.956;2023-08-31T10:33:20;5.60;;;2.30;;
20154;SDS011;10238;49.556;10.956;2023-08-31T10:36:09;3.90;;;2.22;;
20154;SDS011;10238;49.556;10.956;2023-08-31T10:39:00;2.50;;;2.30;;
20154;SDS011;10238;49.556;10.956;2023-08-31T10:41:58;3.33;;;2.38;;
20154;SDS011;10238;49.556;10.956;2023-08-31T10:44:48;3.70;;;2.40;;
20154;SDS011;10238;49.556;10.956;2023-08-31T10:47:37;3.00;;;2.42;;
20154;SDS011;10238;49.556;10.956;2023-08-31T10:50:33;4.70;;;2.67;;
20154;SDS011;10238;49.556;10.956;2023-08-31T10:53:28;3.42;;;2.42;;
20154;SDS011;10238;49.556;10.956;2023-08-31T10:56:16;3.92;;;2.67;;
20154;SDS011;10238;49.556;10.956;2023-08-31T10:59:06;2.72;;;2.33;;
20154;SDS011;10238;49.556;10.956;2023-08-31T11:01:55;2.90;;;2.22;;
20154;SDS011;10238;49.556;10.956;2023-08-31T11:04:53;4.03;;;2.42;;
20154;SDS011;10238;49.556;10.956;2023-08-31T11:07:43;4.30;;;2.53;;
20154;SDS011;10238;49.556;10.956;2023-08-31T11:10:33;5.00;;;2.45;;
20154;SDS011;10238;49.556;10.956;2023-08-31T11:13:22;4.50;;;2.80;;
20154;SDS011;10238;49.556;10.956;2023-08-31T11:16:11;4.30;;;2.65;;
20154;SDS011;10238;49.556;10.956;2023-08-31T11:19:00;3.47;;;3.08;;
20154;SDS011;10238;49.556;10.956;2023-08-31T11:21:50;3.67;;;3.38;;
20154;SDS011;10238;49.556;10.956;2023-08-31T11:24:37;3.40;;;2.67;;
20154;SDS011;10238;49.556;10.956;2023-08-31T11:27:26;5.70;;;2.70;;
20154;SDS011;10238;49.556;10.956;2023-08-31T11:30:14;3.17;;;2.50;;
20154;SDS011;10238;49.556;10.956;2023-08-31T11:33:03;4.38;;;2.60;;
20154;SDS011;10238;49.556;10.956;2023-08-31T11:35:53;2.90;;;2.00;;
20154;SDS011;10238;49.556;10.956;2023-08-31T11:38:41;3.90;;;2.17;;
20154;SDS011;10238;49.556;10.956;2023-08-31T11:41:30;5.05;;;2.20;;
20154;SDS011;10238;49.556;10.956;2023-08-31T11:44:21;3.65;;;1.95;;
20154;SDS011;10238;49.556;10.956;2023-08-31T11:47:09;5.28;;;2.42;;
20154;SDS011;10238;49.556;10.956;2023-08-31T11:49:59;3.38;;;2.25;;
20154;SDS011;10238;49.556;10.956;2023-08-31T11:52:49;4.72;;;2.35;;
20154;SDS011;10238;49.556;10.956;2023-08-31T11:55:48;4.22;;;2.42;;
20154;SDS011;10238;49.556;10.956;2023-08-31T11:58:40;5.95;;;2.30;;
20154;SDS011;10238;49.556;10.956;2023-08-31T12:01:50;2.95;;;2.13;;
20154;SDS011;10238;49.556;10.956;2023-08-31T12:04:43;3.10;;;2.42;;
20154;SDS011;10238;49.556;10.956;2023-08-31T12:07:34;2.20;;;1.90;;
20154;SDS011;10238;49.556;10.956;2023-08-31T12:10:27;3.90;;;2.03;;
20154;SDS011;10238;49.556;10.956;2023-08-31T12:13:15;6.13;;;2.30;;
20154;SDS011;10238;49.556;10.956;2023-08-31T12:16:02;6.93;;;3.10;;
20154;SDS011;10238;49.556;10.956;2023-08-31T12:18:50;6.97;;;2.53;;
20154;SDS011;10238;49.556;10.956;2023-08-31T12:21:38;4.50;;;1.95;;
20154;SDS011;10238;49.556;10.956;2023-08-31T12:24:28;3.03;;;2.10;;
20154;SDS011;10238;49.556;10.956;2023-08-31T12:27:15;4.60;;;2.13;;
20154;SDS011;10238;49.556;10.956;2023-08-31T12:30:04;3.08;;;2.03;;
20154;SDS011;10238;49.556;10.956;2023-08-31T12:32:54;5.13;;;2.05;;
20154;SDS011;10238;49.556;10.956;2023-08-31T12:35:42;5.10;;;1.85;;
20154;SDS011;10238;49.556;10.956;2023-08-31T12:38:30;3.85;;;1.83;;
20154;SDS011;10238;49.556;10.956;2023-08-31T12:41:20;3.72;;;1.98;;
20154;SDS011;10238;49.556;10.956;2023-08-31T12:44:09;3.58;;;1.88;;
20154;SDS011;10238;49.556;10.956;2023-08-31T12:46:57;3.88;;;2.00;;
20154;SDS011;10238;49.556;10.956;2023-08-31T12:49:45;5.80;;;1.83;;
20154;SDS011;10238;49.556;10.956;2023-08-31T12:52:32;3.22;;;2.40;;
20154;SDS011;10238;49.556;10.956;2023-08-31T12:55:20;5.43;;;2.08;;
20154;SDS011;10238;49.556;10.956;2023-08-31T12:58:09;4.50;;;1.95;;
20154;SDS011;10238;49.556;10.956;2023-08-31T13:00:57;3.95;;;2.10;;
20154;SDS011;10238;49.556;10.956;2023-08-31T13:03:45;5.25;;;2.22;;
20154;SDS011;10238;49.556;10.956;2023-08-31T13:06:34;3.78;;;2.28;;
20154;SDS011;10238;49.556;10.956;2023-08-31T13:09:22;3.75;;;2.22;;
20154;SDS011;10238;49.556;10.956;2023-08-31T13:12:10;3.10;;;2.00;;
20154;SDS011;10238;49.556;10.956;2023-08-31T13:14:59;3.75;;;2.03;;
20154;SDS011;10238;49.556;10.956;2023-08-31T13:17:48;5.15;;;2.05;;
20154;SDS011;10238;49.556;10.956;2023-08-31T13:20:35;3.33;;;2.03;;
20154;SDS011;10238;49.556;10.956;2023-08-31T13:23:23;4.65;;;2.10;;
20154;SDS011;10238;49.556;10.956;2023-08-31T13:26:11;4.93;;;2.35;;
20154;SDS011;10238;49.556;10.956;2023-08-31T13:28:59;3.17;;;2.17;;
20154;SDS011;10238;49.556;10.956;2023-08-31T13:31:48;3.65;;;2.40;;
20154;SDS011;10238;49.556;10.956;2023-08-31T13:34:36;3.05;;;2.50;;
20154;SDS011;10238;49.556;10.956;2023-08-31T13:37:24;4.05;;;2.78;;
20154;SDS011;10238;49.556;10.956;2023-08-31T13:40:11;5.43;;;2.30;;
20154;SDS011;10238;49.556;10.956;2023-08-31T13:42:59;6.30;;;2.50;;
20154;SDS011;10238;49.556;10.956;2023-08-31T13:45:49;4.40;;;1.90;;
20154;SDS011;10238;49.556;10.956;2023-08-31T13:48:38;2.70;;;2.20;;
20154;SDS011;10238;49.556;10.956;2023-08-31T13:51:25;2.50;;;1.83;;
20154;SDS011;10238;49.556;10.956;2023-08-31T13:54:12;4.05;;;2.17;;
20154;SDS011;10238;49.556;10.956;2023-08-31T13:57:00;4.20;;;2.35;;
20154;SDS011;10238;49.556;10.956;2023-08-31T13:59:48;3.53;;;2.33;;
20154;SDS011;10238;49.556;10.956;2023-08-31T14:02:35;4.70;;;2.10;;
20154;SDS011;10238;49.556;10.956;2023-08-31T14:05:25;2.53;;;1.73;;
20154;SDS011;10238;49.556;10.956;2023-08-31T14:08:12;4.85;;;2.10;;
20154;SDS011;10238;49.556;10.956;2023-08-31T14:11:00;3.25;;;1.92;;
20154;SDS011;10238;49.556;10.956;2023-08-31T14:13:48;3.60;;;2.58;;
20154;SDS011;10238;49.556;10.956;2023-08-31T14:16:38;2.78;;;2.05;;
20154;SDS011;10238;49.556;10.956;2023-08-31T14:19:26;2.40;;;1.85;;
20154;SDS011;10238;49.556;10.956;2023-08-31T14:22:15;3.97;;;2.80;;
20154;SDS011;10238;49.556;10.956;2023-08-31T14:25:03;2.40;;;2.20;;
20154;SDS011;10238;49.556;10.956;2023-08-31T14:27:52;5.95;;;2.50;;
20154;SDS011;10238;49.556;10.956;2023-08-31T14:30:39;3.28;;;2.15;;
20154;SDS011;10238;49.556;10.956;2023-08-31T14:33:27;3.65;;;1.95;;
20154;SDS011;10238;49.556;10.956;2023-08-31T14:36:15;3.05;;;2.22;;
20154;SDS011;10238;49.556;10.956;2023-08-31T14:39:04;2.63;;;1.90;;
20154;SDS011;10238;49.556;10.956;2023-08-31T14:41:52;2.17;;;1.90;;
20154;SDS011;10238;49.556;10.956;2023-08-31T14:44:40;2.28;;;1.85;;
20154;SDS011;10238;49.556;10.956;2023-08-31T14:47:27;4.32;;;2.03;;
20154;SDS011;10238;49.556;10.956;2023-08-31T14:50:15;3.70;;;2.25;;
20154;SDS011;10238;49.556;10.956;2023-08-31T14:53:03;3.17;;;2.10;;
20154;SDS011;10238;49.556;10.956;2023-08-31T14:55:52;2.75;;;1.95;;
20154;SDS011;10238;49.556;10.956;2023-08-31T14:58:40;4.45;;;2.05;;
20154;SDS011;10238;49.556;10.956;2023-08-31T15:01:27;3.15;;;2.05;;
20154;SDS011;10238;49.556;10.956;2023-08-31T15:04:16;4.80;;;1.85;;
20154;SDS011;10238;49.556;10.956;2023-08-31T15:07:03;3.47;;;1.95;;
20154;SDS011;10238;49.556;10.956;2023-08-31T15:09:52;3.25;;;2.00;;
20154;SDS011;10238;49.556;10.956;2023-08-31T15:12:41;2.75;;;1.73;;
20154;SDS011;10238;49.556;10.956;2023-08-31T15:15:29;2.50;;;1.98;;
20154;SDS011;10238;49.556;10.956;2023-08-31T15:18:17;3.25;;;1.92;;
20154;SDS011;10238;49.556;10.956;2023-08-31T15:21:04;3.47;;;1.98;;
20154;SDS011;10238;49.556;10.956;2023-08-31T15:23:52;4.72;;;1.85;;
20154;SDS011;10238;49.556;10.956;2023-08-31T15:26:40;3.05;;;1.90;;
20154;SDS011;10238;49.556;10.956;2023-08-31T15:29:28;4.05;;;2.30;;
20154;SDS011;10238;49.556;10.956;2023-08-31T15:32:17;2.58;;;1.88;;
20154;SDS011;10238;49.556;10.956;2023-08-31T15:35:04;2.63;;;1.70;;
20154;SDS011;10238;49.556;10.956;2023-08-31T15:37:53;4.43;;;2.33;;
20154;SDS011;10238;49.556;10.956;2023-08-31T15:40:45;5.00;;;2.10;;
20154;SDS011;10238;49.556;10.956;2023-08-31T15:43:36;5.00;;;2.28;;
20154;SDS011;10238;49.556;10.956;2023-08-31T15:46:25;2.20;;;2.00;;
20154;SDS011;10238;49.556;10.956;2023-08-31T15:49:13;4.50;;;2.30;;
20154;SDS011;10238;49.556;10.956;2023-08-31T15:52:01;3.05;;;1.88;;
20154;SDS011;10238;49.556;10.956;2023-08-31T15:54:49;3.38;;;2.05;;
20154;SDS011;10238;49.556;10.956;2023-08-31T15:57:38;5.15;;;2.58;;
20154;SDS011;10238;49.556;10.956;2023-08-31T16:00:26;3.70;;;2.20;;
20154;SDS011;10238;49.556;10.956;2023-08-31T16:03:15;3.65;;;2.30;;
20154;SDS011;10238;49.556;10.956;2023-08-31T16:06:04;3.05;;;1.92;;
20154;SDS011;10238;49.556;10.956;2023-08-31T16:08:54;2.92;;;1.92;;
20154;SDS011;10238;49.556;10.956;2023-08-31T16:11:41;3.83;;;2.20;;
20154;SDS011;10238;49.556;10.956;2023-08-31T16:14:29;5.68;;;2.60;;
20154;SDS011;10238;49.556;10.956;2023-08-31T16:17:17;4.07;;;2.05;;
20154;SDS011;10238;49.556;10.956;2023-08-31T16:20:07;3.67;;;2.28;;
20154;SDS011;10238;49.556;10.956;2023-08-31T16:22:57;6.17;;;2.67;;
20154;SDS011;10238;49.556;10.956;2023-08-31T16:25:44;5.10;;;2.53;;
20154;SDS011;10238;49.556;10.956;2023-08-31T16:28:32;4.82;;;2.15;;
20154;SDS011;10238;49.556;10.956;2023-08-31T16:31:20;5.90;;;2.35;;
20154;SDS011;10238;49.556;10.956;2023-08-31T16:34:07;6.93;;;2.70;;
20154;SDS011;10238;49.556;10.956;2023-08-31T16:36:56;4.85;;;2.50;;
20154;SDS011;10238;49.556;10.956;2023-08-31T16:39:44;5.80;;;2.50;;
20154;SDS011;10238;49.556;10.956;2023-08-31T16:42:33;5.55;;;2.40;;
20154;SDS011;10238;49.556;10.956;2023-08-31T16:45:20;4.72;;;2.28;;